Time,TemperatureF,DewpointF,PressureIn,WindDirection,WindDirectionDegrees,WindSpeedMPH,WindSpeedGustMPH,Humidity,HourlyPrecipIn,Conditions,Clouds,dailyrainin,SoftwareType,DateUTC
2013-01-02 00:15:00,20.1,17.9,29.77,West,270,2.7,-999.0,91,-99.99,,,0.00,Acu-Link.com,2013-01-02 06:15:00,
2013-01-02 00:30:00,20.1,17.9,29.77,SW,225,2.7,-999.0,91,-99.99,,,0.00,Acu-Link.com,2013-01-02 06:30:00,
2013-01-02 00:45:00,19.9,17.7,29.76,South,180,1.7,-999.0,91,-99.99,,,0.00,Acu-Link.com,2013-01-02 06:45:00,
2013-01-02 01:00:00,19.8,17.6,29.76,WSW,247,1.1,-999.0,91,-99.99,,,0.00,Acu-Link.com,2013-01-02 07:00:00,
2013-01-02 01:16:00,18.9,17.0,29.75,East,90,1.7,-999.0,92,-99.99,,,0.00,Acu-Link.com,2013-01-02 07:16:00,
2013-01-02 01:31:00,18.0,16.3,29.75,SSE,157,2.2,-999.0,93,-99.99,,,0.00,Acu-Link.com,2013-01-02 07:31:00,
2013-01-02 01:46:00,17.2,15.5,29.75,ESE,112,2.2,-999.0,93,-99.99,,,0.00,Acu-Link.com,2013-01-02 07:46:00,
2013-01-02 02:01:00,16.7,15.3,29.75,West,270,1.7,-999.0,94,-99.99,,,0.00,Acu-Link.com,2013-01-02 08:01:00,
2013-01-02 02:16:00,16.0,14.6,29.74,South,180,2.2,-999.0,94,-99.99,,,0.00,Acu-Link.com,2013-01-02 08:16:00,
2013-01-02 02:32:00,15.3,13.9,29.74,NE,45,2.2,-999.0,94,-99.99,,,0.00,Acu-Link.com,2013-01-02 08:32:00,
2013-01-02 02:47:00,14.5,13.3,29.74,ENE,67,1.7,-999.0,95,-99.99,,,0.00,Acu-Link.com,2013-01-02 08:47:00,
2013-01-02 03:07:00,14.2,13.0,29.74,South,180,1.1,-999.0,95,-99.99,,,0.00,Acu-Link.com,2013-01-02 09:07:00,
2013-01-02 03:22:00,13.3,12.1,29.74,NE,45,1.1,-999.0,95,-99.99,,,0.00,Acu-Link.com,2013-01-02 09:22:00,
2013-01-02 03:37:00,12.7,11.3,29.74,West,270,2.7,-999.0,94,-99.99,,,0.00,Acu-Link.com,2013-01-02 09:37:00,
2013-01-02 03:52:00,12.7,11.8,29.74,SSE,157,1.7,-999.0,96,-99.99,,,0.00,Acu-Link.com,2013-01-02 09:52:00,
2013-01-02 04:07:00,12.6,11.4,29.73,WSW,247,3.2,-999.0,95,-99.99,,,0.00,Acu-Link.com,2013-01-02 10:07:00,
2013-01-02 04:23:00,12.4,11.2,29.73,South,180,1.1,-999.0,95,-99.99,,,0.00,Acu-Link.com,2013-01-02 10:23:00,
2013-01-02 04:38:00,12.0,10.8,29.74,WNW,292,0.0,-999.0,95,-99.99,,,0.00,Acu-Link.com,2013-01-02 10:38:00,
2013-01-02 04:53:00,11.1,9.7,29.72,ENE,67,1.7,-999.0,94,-99.99,,,0.00,Acu-Link.com,2013-01-02 10:53:00,
2013-01-02 05:08:00,10.9,9.8,29.72,East,90,2.2,-999.0,95,-99.99,,,0.00,Acu-Link.com,2013-01-02 11:08:00,
2013-01-02 05:23:00,10.6,9.5,29.72,SSW,202,2.2,-999.0,95,-99.99,,,0.00,Acu-Link.com,2013-01-02 11:23:00,
2013-01-02 05:39:00,10.6,9.5,29.72,ENE,67,1.1,-999.0,95,-99.99,,,0.00,Acu-Link.com,2013-01-02 11:39:00,
2013-01-02 05:54:00,10.4,9.3,29.72,NW,315,1.7,-999.0,95,-99.99,,,0.00,Acu-Link.com,2013-01-02 11:54:00,
2013-01-02 06:09:00,10.6,9.7,29.72,SW,225,1.7,-999.0,96,-99.99,,,0.00,Acu-Link.com,2013-01-02 12:09:00,
2013-01-02 06:24:00,11.1,10.0,29.72,SW,225,3.2,-999.0,95,-99.99,,,0.00,Acu-Link.com,2013-01-02 12:24:00,
2013-01-02 06:39:00,11.1,10.0,29.72,SSE,157,3.2,-999.0,95,-99.99,,,0.00,Acu-Link.com,2013-01-02 12:39:00,
2013-01-02 06:55:00,11.7,10.3,29.72,SSE,157,1.1,-999.0,94,-99.99,,,0.00,Acu-Link.com,2013-01-02 12:55:00,
2013-01-02 07:10:00,11.8,10.4,29.72,West,270,0.0,-999.0,94,-99.99,,,0.00,Acu-Link.com,2013-01-02 13:10:00,
2013-01-02 07:25:00,11.8,10.4,29.72,SSE,157,1.7,-999.0,94,-99.99,,,0.00,Acu-Link.com,2013-01-02 13:25:00,
2013-01-02 07:40:00,11.8,10.4,29.72,ESE,112,0.0,-999.0,94,-99.99,,,0.00,Acu-Link.com,2013-01-02 13:40:00,
2013-01-02 07:56:00,12.0,10.6,29.73,SSW,202,1.7,-999.0,94,-99.99,,,0.00,Acu-Link.com,2013-01-02 13:56:00,
2013-01-02 08:11:00,12.4,10.8,29.72,SE,135,0.0,-999.0,93,-99.99,,,0.00,Acu-Link.com,2013-01-02 14:11:00,
2013-01-02 08:26:00,12.6,11.0,29.73,NNE,22,2.7,-999.0,93,-99.99,,,0.00,Acu-Link.com,2013-01-02 14:26:00,
2013-01-02 08:41:00,12.7,11.1,29.73,SSE,157,3.2,-999.0,93,-99.99,,,0.00,Acu-Link.com,2013-01-02 14:41:00,
2013-01-02 08:56:00,13.1,11.5,29.73,NE,45,1.7,-999.0,93,-99.99,,,0.00,Acu-Link.com,2013-01-02 14:56:00,
2013-01-02 09:12:00,13.3,11.4,29.74,West,270,2.7,-999.0,92,-99.99,,,0.00,Acu-Link.com,2013-01-02 15:12:00,
2013-01-02 09:27:00,13.8,11.7,29.74,West,270,2.2,-999.0,91,-99.99,,,0.00,Acu-Link.com,2013-01-02 15:27:00,
2013-01-02 09:42:00,14.4,12.3,29.74,ESE,112,1.7,-999.0,91,-99.99,,,0.00,Acu-Link.com,2013-01-02 15:42:00,
2013-01-02 09:57:00,14.9,12.5,29.75,South,180,0.0,-999.0,90,-99.99,,,0.00,Acu-Link.com,2013-01-02 15:57:00,
2013-01-02 10:12:00,15.4,12.7,29.75,ENE,67,2.7,-999.0,89,-99.99,,,0.00,Acu-Link.com,2013-01-02 16:12:00,
2013-01-02 10:28:00,16.0,13.3,29.75,ESE,112,0.0,-999.0,89,-99.99,,,0.00,Acu-Link.com,2013-01-02 16:28:00,
2013-01-02 10:43:00,16.7,14.0,29.74,SE,135,2.7,-999.0,89,-99.99,,,0.00,Acu-Link.com,2013-01-02 16:43:00,
2013-01-02 10:58:00,17.4,14.2,29.74,East,90,1.7,-999.0,87,-99.99,,,0.00,Acu-Link.com,2013-01-02 16:58:00,
2013-01-02 11:13:00,17.8,14.6,29.74,SW,225,2.2,-999.0,87,-99.99,,,0.00,Acu-Link.com,2013-01-02 17:13:00,
2013-01-02 11:28:00,18.1,15.2,29.74,SW,225,2.7,-999.0,88,-99.99,,,0.00,Acu-Link.com,2013-01-02 17:28:00,
2013-01-02 11:44:00,19.4,16.2,29.73,SW,225,1.7,-999.0,87,-99.99,,,0.00,Acu-Link.com,2013-01-02 17:44:00,
2013-01-02 11:59:00,19.9,16.7,29.73,West,270,2.7,-999.0,87,-99.99,,,0.00,Acu-Link.com,2013-01-02 17:59:00,
2013-01-02 12:14:00,19.9,16.9,29.73,SSW,202,2.2,-999.0,88,-99.99,,,0.00,Acu-Link.com,2013-01-02 18:14:00,
2013-01-02 12:29:00,20.5,18.0,29.73,WSW,247,1.7,-999.0,90,-99.99,,,0.00,Acu-Link.com,2013-01-02 18:29:00,
2013-01-02 12:44:00,21.4,18.9,29.73,SSW,202,1.1,-999.0,90,-99.99,,,0.00,Acu-Link.com,2013-01-02 18:44:00,
2013-01-02 13:00:00,22.1,19.6,29.73,WSW,247,1.1,-999.0,90,-99.99,,,0.00,Acu-Link.com,2013-01-02 19:00:00,
2013-01-02 13:15:00,22.5,20.0,29.73,South,180,1.7,-999.0,90,-99.99,,,0.00,Acu-Link.com,2013-01-02 19:15:00,
2013-01-02 13:30:00,23.2,20.7,29.74,SW,225,0.0,-999.0,90,-99.99,,,0.00,Acu-Link.com,2013-01-02 19:30:00,
2013-01-02 13:45:00,23.4,20.6,29.74,SW,225,2.2,-999.0,89,-99.99,,,0.00,Acu-Link.com,2013-01-02 19:45:00,
2013-01-02 14:01:00,23.4,20.9,29.75,SW,225,1.7,-999.0,90,-99.99,,,0.00,Acu-Link.com,2013-01-02 20:01:00,
2013-01-02 14:16:00,23.9,21.4,29.75,WSW,247,1.7,-999.0,90,-99.99,,,0.00,Acu-Link.com,2013-01-02 20:16:00,
2013-01-02 14:31:00,24.4,21.6,29.75,WSW,247,2.2,-999.0,89,-99.99,,,0.00,Acu-Link.com,2013-01-02 20:31:00,
2013-01-02 14:46:00,24.8,22.0,29.76,SW,225,1.7,-999.0,89,-99.99,,,0.00,Acu-Link.com,2013-01-02 20:46:00,
2013-01-02 15:01:00,25.2,22.4,29.76,WNW,292,1.1,-999.0,89,-99.99,,,0.00,Acu-Link.com,2013-01-02 21:01:00,
2013-01-02 15:17:00,25.3,22.3,29.77,North,0,1.1,-999.0,88,-99.99,,,0.00,Acu-Link.com,2013-01-02 21:17:00,
2013-01-02 15:32:00,25.3,22.3,29.78,WSW,247,1.1,-999.0,88,-99.99,,,0.00,Acu-Link.com,2013-01-02 21:32:00,
2013-01-02 15:47:00,25.3,22.5,29.78,SSW,202,3.2,-999.0,89,-99.99,,,0.00,Acu-Link.com,2013-01-02 21:47:00,
2013-01-02 16:02:00,25.2,22.7,29.79,SW,225,1.7,-999.0,90,-99.99,,,0.00,Acu-Link.com,2013-01-02 22:02:00,
2013-01-02 16:17:00,25.2,22.7,29.79,WSW,247,2.7,-999.0,90,-99.99,,,0.00,Acu-Link.com,2013-01-02 22:17:00,
2013-01-02 16:33:00,25.0,22.5,29.79,SE,135,2.2,-999.0,90,-99.99,,,0.00,Acu-Link.com,2013-01-02 22:33:00,
2013-01-02 16:48:00,24.6,22.4,29.80,NNW,337,1.7,-999.0,91,-99.99,,,0.00,Acu-Link.com,2013-01-02 22:48:00,
2013-01-02 17:03:00,24.3,22.3,29.81,NW,315,2.2,-999.0,92,-99.99,,,0.00,Acu-Link.com,2013-01-02 23:03:00,
2013-01-02 17:18:00,23.7,20.9,29.82,SE,135,1.7,-999.0,89,-99.99,,,0.00,Acu-Link.com,2013-01-02 23:18:00,
2013-01-02 17:33:00,22.6,19.3,29.82,NNE,22,1.7,-999.0,87,-99.99,,,0.00,Acu-Link.com,2013-01-02 23:33:00,
2013-01-02 17:49:00,22.1,18.8,29.83,ESE,112,1.1,-999.0,87,-99.99,,,0.00,Acu-Link.com,2013-01-02 23:49:00,
2013-01-02 18:04:00,22.1,18.8,29.83,East,90,1.7,-999.0,87,-99.99,,,0.00,Acu-Link.com,2013-01-03 00:04:00,
2013-01-02 18:19:00,21.2,17.1,29.84,East,90,3.2,-999.0,84,-99.99,,,0.00,Acu-Link.com,2013-01-03 00:19:00,
2013-01-02 18:50:00,19.2,15.2,29.86,ESE,112,2.2,-999.0,84,-99.99,,,0.00,Acu-Link.com,2013-01-03 00:50:00,
2013-01-02 19:05:00,18.3,14.3,29.86,ESE,112,2.2,-999.0,84,-99.99,,,0.00,Acu-Link.com,2013-01-03 01:05:00,
2013-01-02 19:20:00,17.4,13.7,29.87,NNE,22,2.2,-999.0,85,-99.99,,,0.00,Acu-Link.com,2013-01-03 01:20:00,
2013-01-02 19:35:00,16.5,12.8,29.87,NNW,337,2.7,-999.0,85,-99.99,,,0.00,Acu-Link.com,2013-01-03 01:35:00,
2013-01-02 19:50:00,15.4,11.4,29.87,SW,225,1.1,-999.0,84,-99.99,,,0.00,Acu-Link.com,2013-01-03 01:50:00,
2013-01-02 20:06:00,14.7,10.5,29.88,WNW,292,1.7,-999.0,83,-99.99,,,0.00,Acu-Link.com,2013-01-03 02:06:00,
2013-01-02 20:21:00,14.2,9.7,29.89,West,270,3.2,-999.0,82,-99.99,,,0.00,Acu-Link.com,2013-01-03 02:21:00,
2013-01-02 20:36:00,13.5,9.3,29.90,SSW,202,2.7,-999.0,83,-99.99,,,0.00,Acu-Link.com,2013-01-03 02:36:00,
2013-01-02 20:51:00,12.4,8.8,29.90,SE,135,2.2,-999.0,85,-99.99,,,0.00,Acu-Link.com,2013-01-03 02:51:00,
2013-01-02 21:06:00,11.7,8.1,29.91,NE,45,3.7,-999.0,85,-99.99,,,0.00,Acu-Link.com,2013-01-03 03:06:00,
2013-01-02 21:22:00,11.3,7.9,29.91,SSW,202,2.2,-999.0,86,-99.99,,,0.00,Acu-Link.com,2013-01-03 03:22:00,
2013-01-02 21:52:00,11.3,7.9,29.92,WSW,247,1.7,-999.0,86,-99.99,,,0.00,Acu-Link.com,2013-01-03 03:52:00,
2013-01-02 22:07:00,11.3,7.9,29.93,SSW,202,1.7,-999.0,86,-99.99,,,0.00,Acu-Link.com,2013-01-03 04:07:00,
2013-01-02 22:22:00,11.3,7.9,29.93,SW,225,3.2,-999.0,86,-99.99,,,0.00,Acu-Link.com,2013-01-03 04:22:00,
2013-01-02 22:38:00,10.9,7.6,29.94,SSW,202,2.2,-999.0,86,-99.99,,,0.00,Acu-Link.com,2013-01-03 04:38:00,
2013-01-02 22:53:00,10.8,7.2,29.95,NE,45,2.2,-999.0,85,-99.99,,,0.00,Acu-Link.com,2013-01-03 04:53:00,
2013-01-02 23:08:00,10.6,7.0,29.95,SSE,157,1.7,-999.0,85,-99.99,,,0.00,Acu-Link.com,2013-01-03 05:08:00,
2013-01-02 23:23:00,10.4,6.8,29.95,South,180,1.1,-999.0,85,-99.99,,,0.00,Acu-Link.com,2013-01-03 05:23:00,
2013-01-02 23:39:00,10.2,6.6,29.96,SSW,202,2.2,-999.0,85,-99.99,,,0.00,Acu-Link.com,2013-01-03 05:39:00,
2013-01-02 23:54:00,10.2,6.6,29.96,North,0,2.7,-999.0,85,-99.99,,,0.00,Acu-Link.com,2013-01-03 05:54:00,